Time;durP1;ratioP1;P1;durP2;ratioP2;P2;SDS_P1;SDS_P2;PMS_P1;PMS_P2;Temp;Humidity;BMP_temperature;BMP_pressure;BME280_temperature;BME280_humidity;BME280_pressure;Samples;Min_cycle;Max_cycle;Signal;HPM_P1;HPM_P2
2022/04/10 00:00:07;;;;;;;7.77;4.20;;;;;;;9.43;50.23;97593.25;5114163;28;20258;-72
2022/04/10 00:02:33;;;;;;;5.13;4.40;;;;;;;9.44;49.44;97593.13;5122957;27;20181;-73
2022/04/10 00:04:59;;;;;;;6.07;4.40;;;;;;;9.42;49.80;97596.84;5114365;28;20929;-72
2022/04/10 00:07:24;;;;;;;4.73;3.80;;;;;;;9.36;49.30;97592.97;5115551;27;20812;-71
2022/04/10 00:09:49;;;;;;;4.90;3.70;;;;;;;9.20;49.87;97588.25;5114311;28;20549;-72
2022/04/10 00:12:15;;;;;;;8.13;4.00;;;;;;;9.16;50.01;97586.88;5114889;28;20192;-71
2022/04/10 00:14:40;;;;;;;7.73;3.80;;;;;;;9.11;49.16;97584.66;5114143;28;20188;-71
2022/04/10 00:17:06;;;;;;;4.63;3.60;;;;;;;9.18;50.31;97584.97;5114620;28;20184;-71
2022/04/10 00:19:32;;;;;;;6.27;3.33;;;;;;;9.16;49.69;97592.09;5112555;27;20209;-71
2022/04/10 00:21:58;;;;;;;5.03;3.30;;;;;;;9.18;49.91;97595.41;5114694;28;20180;-72
2022/04/10 00:24:25;;;;;;;4.00;3.70;;;;;;;9.27;49.74;97589.38;5114082;28;20426;-71
2022/04/10 00:26:52;;;;;;;3.47;3.17;;;;;;;9.29;49.45;97592.69;5114145;28;20208;-71
2022/04/10 00:29:18;;;;;;;6.67;3.50;;;;;;;9.25;49.95;97600.94;5122390;27;20902;-71
2022/04/10 00:31:44;;;;;;;3.50;3.20;;;;;;;9.22;49.23;97587.16;5114060;27;20415;-72
2022/04/10 00:34:10;;;;;;;5.20;3.73;;;;;;;9.30;49.59;97590.88;5097083;28;20186;-70
2022/04/10 00:36:35;;;;;;;5.60;3.70;;;;;;;9.26;49.83;97597.38;5104340;27;20487;-70
2022/04/10 00:39:01;;;;;;;6.87;3.50;;;;;;;9.30;49.73;97589.13;5119518;27;20201;-70
2022/04/10 00:41:26;;;;;;;3.53;3.17;;;;;;;9.26;49.38;97592.13;5113905;28;20550;-71
2022/04/10 00:44:06;;;;;;;5.00;3.50;;;;;;;9.25;49.47;97587.88;5113577;28;20181;-70
2022/04/10 00:46:31;;;;;;;5.83;3.40;;;;;;;9.27;48.94;97589.38;5113266;28;20204;-71
2022/04/10 00:48:57;;;;;;;4.97;3.60;;;;;;;9.30;49.66;97596.13;5114985;27;21137;-70
2022/04/10 00:51:40;;;;;;;8.00;3.87;;;;;;;9.24;48.87;97588.81;5117646;27;20199;-70
2022/04/10 00:54:16;;;;;;;4.63;3.10;;;;;;;9.19;49.05;97592.66;5111059;27;20199;-70
2022/04/10 00:56:42;;;;;;;5.77;3.80;;;;;;;9.23;48.87;97593.22;5108416;28;20922;-69
2022/04/10 00:59:08;;;;;;;5.30;3.50;;;;;;;9.24;48.85;97591.44;5113302;28;20817;-69
2022/04/10 01:01:34;;;;;;;5.13;3.57;;;;;;;9.25;49.43;97591.28;5113647;28;20525;-71
2022/04/10 01:04:01;;;;;;;4.20;3.40;;;;;;;9.29;49.41;97587.47;5113839;28;20187;-70
2022/04/10 01:06:26;;;;;;;4.90;3.60;;;;;;;9.32;49.23;97597.66;5115880;27;20828;-72
2022/04/10 01:08:52;;;;;;;5.50;3.50;;;;;;;9.31;49.41;97585.53;5120268;27;20504;-71
2022/04/10 01:11:17;;;;;;;5.40;3.30;;;;;;;9.28;49.08;97591.03;5097142;28;20207;-73
2022/04/10 01:13:43;;;;;;;4.10;3.20;;;;;;;9.28;49.17;97598.88;5114160;28;20699;-73
2022/04/10 01:16:08;;;;;;;6.20;3.63;;;;;;;9.33;49.54;97606.31;5103097;27;20176;-73
2022/04/10 01:18:35;;;;;;;4.53;3.00;;;;;;;9.30;49.37;97610.03;5121382;27;20232;-73
2022/04/10 01:21:02;;;;;;;4.67;3.50;;;;;;;9.22;49.21;97607.25;5080870;28;20664;-73
2022/04/10 01:23:29;;;;;;;8.83;3.57;;;;;;;9.24;49.09;97607.13;5110987;28;20430;-70
2022/04/10 01:25:54;;;;;;;6.03;3.60;;;;;;;9.15;49.10;97614.00;5112976;27;20475;-71
2022/04/10 01:28:20;;;;;;;5.50;3.60;;;;;;;9.05;48.91;97614.78;5112953;28;20427;-71
2022/04/10 01:30:45;;;;;;;5.13;3.73;;;;;;;9.02;49.43;97616.81;5112698;28;20181;-70
2022/04/10 01:33:11;;;;;;;3.23;3.00;;;;;;;9.02;49.46;97617.66;5112484;28;20188;-70
2022/04/10 01:35:37;;;;;;;5.80;3.40;;;;;;;8.96;49.75;97618.19;5112452;28;20189;-71
2022/04/10 01:38:04;;;;;;;4.50;3.40;;;;;;;9.03;49.79;97618.47;5113572;27;20318;-70
2022/04/10 01:40:30;;;;;;;4.17;3.13;;;;;;;9.05;49.40;97629.63;5111998;28;20924;-70
2022/04/10 01:42:55;;;;;;;7.70;3.57;;;;;;;8.98;49.85;97618.88;5113015;28;20510;-70
2022/04/10 01:45:21;;;;;;;7.63;3.20;;;;;;;9.02;49.73;97625.50;5121144;27;20210;-72
2022/04/10 01:47:52;;;;;;;9.03;3.70;;;;;;;9.02;49.85;97616.81;5120585;27;20223;-68
2022/04/10 01:50:19;;;;;;;3.70;3.40;;;;;;;9.07;50.16;97625.91;5112057;28;20338;-69
2022/04/10 01:52:44;;;;;;;3.40;3.10;;;;;;;9.03;50.30;97618.47;5077107;28;20519;-70
2022/04/10 01:55:10;;;;;;;7.10;4.30;;;;;;;9.04;50.37;97620.97;5107992;27;20635;-69
2022/04/10 01:57:35;;;;;;;6.33;3.00;;;;;;;9.10;50.43;97610.94;5112199;28;20196;-71
2022/04/10 02:00:02;;;;;;;4.67;3.27;;;;;;;9.04;50.17;97620.97;5111744;28;20197;-70
2022/04/10 02:02:27;;;;;;;3.67;3.30;;;;;;;9.03;50.01;97614.09;5111992;28;20193;-72
2022/04/10 02:04:53;;;;;;;3.90;3.60;;;;;;;9.03;50.44;97621.09;5117704;27;20494;-70
2022/04/10 02:07:18;;;;;;;6.73;3.90;;;;;;;9.03;50.47;97619.31;5116044;27;20287;-71
2022/04/10 02:09:44;;;;;;;4.43;3.53;;;;;;;9.10;49.80;97613.53;5113238;28;20220;-71
2022/04/10 02:12:10;;;;;;;4.97;3.90;;;;;;;9.07;49.53;97623.31;5120375;28;20216;-71
2022/04/10 02:14:36;;;;;;;4.87;3.70;;;;;;;9.05;50.17;97621.78;5114023;28;20207;-72
2022/04/10 02:17:01;;;;;;;3.90;3.30;;;;;;;9.00;50.36;97614.34;5112623;27;20419;-69
2022/04/10 02:19:27;;;;;;;5.23;3.30;;;;;;;9.00;50.03;97606.50;5113223;28;20217;-69
2022/04/10 02:21:54;;;;;;;3.90;3.50;;;;;;;8.98;50.17;97615.44;5119112;27;20238;-69
2022/04/10 02:24:20;;;;;;;3.53;3.20;;;;;;;8.99;49.90;97615.31;5111375;28;20177;-71
2022/04/10 02:26:45;;;;;;;6.93;3.93;;;;;;;8.98;50.21;97621.50;5112074;28;20963;-72
2022/04/10 02:29:11;;;;;;;4.67;3.50;;;;;;;9.00;49.95;97624.00;5111787;28;20236;-71
2022/04/10 02:31:36;;;;;;;4.40;3.60;;;;;;;8.97;49.81;97619.84;5120202;27;20177;-70
2022/04/10 02:34:02;;;;;;;7.43;3.87;;;;;;;8.95;49.85;97621.75;5111468;28;20505;-71
2022/04/10 02:36:27;;;;;;;6.87;4.73;;;;;;;8.88;50.09;97621.44;5112032;27;20185;-71
2022/04/10 02:38:53;;;;;;;6.90;4.07;;;;;;;8.89;50.26;97622.28;5111339;28;20622;-70
2022/04/10 02:41:18;;;;;;;4.93;3.60;;;;;;;8.78;49.44;97625.81;5111405;28;20181;-71
2022/04/10 02:43:44;;;;;;;4.87;3.83;;;;;;;8.81;49.81;97629.97;5111262;28;20188;-70
2022/04/10 02:46:09;;;;;;;7.93;4.97;;;;;;;8.69;50.08;97627.44;5094463;28;20189;-70
2022/04/10 02:48:35;;;;;;;5.80;3.57;;;;;;;8.73;50.13;97633.22;5118911;27;20700;-70
2022/04/10 02:51:02;;;;;;;4.40;4.00;;;;;;;8.75;50.12;97626.09;5086579;27;20605;-71
2022/04/10 02:53:28;;;;;;;6.63;3.67;;;;;;;8.70;49.40;97628.25;5078617;28;20654;-70
2022/04/10 02:55:54;;;;;;;4.50;3.83;;;;;;;8.60;49.62;97636.88;5099203;28;20916;-72
2022/04/10 02:58:19;;;;;;;6.03;4.47;;;;;;;8.63;50.21;97634.97;5089484;28;20431;-71
2022/04/10 03:00:45;;;;;;;6.93;4.40;;;;;;;8.64;50.12;97637.44;5110343;28;20176;-72
2022/04/10 03:03:10;;;;;;;5.33;4.07;;;;;;;8.68;50.26;97636.25;5111722;28;20685;-71
2022/04/10 03:05:36;;;;;;;6.37;4.40;;;;;;;8.63;50.44;97643.63;5111402;28;20185;-73
2022/04/10 03:08:01;;;;;;;4.40;3.87;;;;;;;8.62;50.51;97636.75;5112349;28;20200;-74
2022/04/10 03:10:27;;;;;;;4.70;4.07;;;;;;;8.56;50.64;97634.66;5111548;28;20201;-72
2022/04/10 03:12:52;;;;;;;6.53;4.60;;;;;;;8.53;50.74;97638.34;5111709;28;20180;-72
2022/04/10 03:15:18;;;;;;;8.37;4.70;;;;;;;8.49;50.43;97636.13;5111382;28;20181;-71
2022/04/10 03:17:43;;;;;;;8.10;4.20;;;;;;;8.46;50.24;97638.00;5119812;28;20549;-70
2022/04/10 03:20:11;;;;;;;4.10;3.23;;;;;;;8.45;49.92;97632.91;5113762;28;20199;-73
2022/04/10 03:22:37;;;;;;;9.97;4.70;;;;;;;8.41;50.84;97634.09;5120037;27;20672;-72
2022/04/10 03:25:03;;;;;;;5.57;4.30;;;;;;;8.34;50.09;97633.78;5111063;28;20419;-71
2022/04/10 03:27:28;;;;;;;4.90;4.40;;;;;;;8.25;50.66;97634.56;5109938;28;20217;-71
2022/04/10 03:29:54;;;;;;;5.60;4.37;;;;;;;8.28;50.88;97644.75;5110738;28;20193;-72
2022/04/10 03:32:20;;;;;;;5.50;4.70;;;;;;;8.30;51.12;97638.44;5111166;28;20306;-71
2022/04/10 03:34:45;;;;;;;5.73;4.70;;;;;;;8.29;50.64;97635.97;5097122;28;20178;-71
2022/04/10 03:37:11;;;;;;;5.93;4.60;;;;;;;8.29;50.32;97641.19;5107956;28;20438;-72
2022/04/10 03:39:36;;;;;;;8.40;4.47;;;;;;;8.17;50.95;97645.63;5112214;28;20305;-72
2022/04/10 03:42:02;;;;;;;5.43;4.83;;;;;;;8.27;51.14;97643.09;5131439;27;20173;-71
2022/04/10 03:44:28;;;;;;;5.77;4.13;;;;;;;8.27;50.60;97643.09;5094460;28;20514;-71
2022/04/10 03:46:53;;;;;;;4.77;4.37;;;;;;;8.28;50.75;97650.78;5111505;28;20189;-71
2022/04/10 03:49:19;;;;;;;7.00;5.03;;;;;;;8.22;50.82;97650.47;5121683;27;20207;-70
2022/04/10 03:51:44;;;;;;;6.73;5.53;;;;;;;8.19;50.15;97651.56;5109045;28;20204;-71
2022/04/10 03:54:10;;;;;;;5.67;4.77;;;;;;;8.14;50.64;97658.94;5130669;27;20192;-71
2022/04/10 03:56:35;;;;;;;5.93;5.03;;;;;;;8.19;51.11;97661.19;5102364;28;21984;-72
2022/04/10 03:59:00;;;;;;;6.53;4.60;;;;;;;8.21;50.30;97675.78;5108891;28;20250;-70
2022/04/10 04:01:26;;;;;;;6.20;4.90;;;;;;;8.16;50.25;97672.69;5118251;28;20184;-71
2022/04/10 04:03:52;;;;;;;6.90;4.50;;;;;;;8.17;50.10;97678.75;5110065;28;20189;-71
2022/04/10 04:06:18;;;;;;;5.00;4.50;;;;;;;8.11;50.45;97669.66;5143352;27;20190;-70
2022/04/10 04:08:43;;;;;;;5.97;5.37;;;;;;;8.10;50.73;97675.81;5092799;28;20883;-70
2022/04/10 04:11:09;;;;;;;5.83;4.60;;;;;;;8.01;50.78;97677.41;5108014;28;20181;-71
2022/04/10 04:13:41;;;;;;;6.33;4.60;;;;;;;8.03;50.73;97680.72;5113755;28;20177;-70
2022/04/10 04:16:07;;;;;;;6.10;5.47;;;;;;;8.01;50.61;97682.63;5107253;27;20221;-71
2022/04/10 04:18:33;;;;;;;5.10;4.60;;;;;;;8.05;50.88;97689.25;5114336;27;20911;-71
2022/04/10 04:20:58;;;;;;;6.70;5.13;;;;;;;8.06;50.30;97690.91;5138220;27;20415;-72
2022/04/10 04:23:24;;;;;;;6.53;4.93;;;;;;;8.06;50.57;97696.13;5114018;28;20185;-71
2022/04/10 04:25:50;;;;;;;6.53;5.20;;;;;;;8.05;51.12;97707.53;5114171;28;20176;-71
2022/04/10 04:28:15;;;;;;;7.60;5.07;;;;;;;8.08;50.56;97704.66;5125483;27;20462;-71
2022/04/10 04:30:41;;;;;;;9.60;5.60;;;;;;;8.15;50.53;97705.81;5104879;28;20252;-73
2022/04/10 04:33:07;;;;;;;5.60;4.93;;;;;;;8.12;50.35;97703.47;5113248;28;20173;-70
2022/04/10 04:35:33;;;;;;;6.13;5.50;;;;;;;8.12;50.36;97713.91;5113401;28;20173;-70
2022/04/10 04:38:00;;;;;;;5.20;4.63;;;;;;;8.10;50.20;97715.81;5119379;27;20606;-71
2022/04/10 04:40:25;;;;;;;6.43;5.50;;;;;;;8.12;50.40;97708.69;5097329;27;20435;-71
2022/04/10 04:42:51;;;;;;;5.60;5.07;;;;;;;8.15;50.37;97724.09;5113777;28;20426;-73
2022/04/10 04:45:18;;;;;;;6.10;5.50;;;;;;;8.19;50.70;97719.44;5112862;27;20223;-71
2022/04/10 04:47:44;;;;;;;7.70;6.47;;;;;;;8.18;50.50;97717.78;5129955;27;20204;-70
2022/04/10 04:50:09;;;;;;;6.30;5.60;;;;;;;8.19;50.86;97716.84;5112870;28;20443;-72
2022/04/10 04:52:35;;;;;;;6.67;5.63;;;;;;;8.24;50.54;97717.31;5121957;27;20435;-72
2022/04/10 04:55:00;;;;;;;7.30;5.67;;;;;;;8.28;50.61;97712.66;5102847;27;20265;-72
2022/04/10 04:57:26;;;;;;;7.03;5.80;;;;;;;8.26;51.16;97714.56;5120445;27;20208;-70
2022/04/10 04:59:51;;;;;;;6.53;5.70;;;;;;;8.24;50.78;97721.69;5113061;28;20204;-71
2022/04/10 05:02:17;;;;;;;7.20;5.50;;;;;;;8.28;50.70;97723.91;5102812;28;20177;-70
2022/04/10 05:04:42;;;;;;;8.30;5.77;;;;;;;8.25;51.24;97734.59;5113468;28;20260;-72
2022/04/10 05:07:08;;;;;;;7.33;5.50;;;;;;;8.27;50.89;97724.06;5112489;28;20205;-70
2022/04/10 05:09:34;;;;;;;6.63;5.83;;;;;;;8.30;50.71;97729.84;5130103;27;20235;-72
2022/04/10 05:11:59;;;;;;;8.80;6.17;;;;;;;8.28;50.50;97744.00;5119330;27;20453;-73
2022/04/10 05:14:25;;;;;;;8.07;6.27;;;;;;;8.36;50.92;97746.81;5115259;27;20177;-71
2022/04/10 05:16:50;;;;;;;6.17;5.57;;;;;;;8.40;50.67;97744.78;5112597;28;20175;-71
2022/04/10 05:19:16;;;;;;;18.30;6.43;;;;;;;8.32;50.71;97755.84;5120638;27;20241;-74
2022/04/10 05:21:41;;;;;;;5.93;5.33;;;;;;;8.39;50.54;97767.47;5116230;27;20173;-73
2022/04/10 05:24:07;;;;;;;6.27;5.70;;;;;;;8.44;50.53;97770.50;5108536;28;20233;-72
2022/04/10 05:26:33;;;;;;;7.53;5.50;;;;;;;8.48;50.38;97771.13;5118021;27;20233;-71
2022/04/10 05:28:58;;;;;;;8.30;5.73;;;;;;;8.54;50.53;97764.59;5117421;27;20219;-71
2022/04/10 05:31:24;;;;;;;7.43;5.40;;;;;;;8.48;50.53;97770.28;5112801;28;20177;-70
2022/04/10 05:33:50;;;;;;;8.00;5.50;;;;;;;8.44;50.96;97778.34;5113509;28;20653;-72
2022/04/10 05:36:15;;;;;;;8.17;5.80;;;;;;;8.45;50.15;97779.19;5121992;27;20510;-72
2022/04/10 05:38:41;;;;;;;7.00;6.30;;;;;;;8.40;50.84;97776.97;5112126;27;20602;-70
2022/04/10 05:41:06;;;;;;;7.73;5.57;;;;;;;8.50;50.70;97789.28;5112572;27;20271;-71
2022/04/10 05:43:32;;;;;;;5.70;5.10;;;;;;;8.51;50.59;97789.16;5114247;28;20249;-73
2022/04/10 05:45:57;;;;;;;7.60;6.27;;;;;;;8.54;50.81;97786.31;5119859;27;20178;-72
2022/04/10 05:48:23;;;;;;;7.60;6.00;;;;;;;8.56;50.43;97791.44;5120650;28;20261;-72
2022/04/10 05:50:48;;;;;;;8.97;6.60;;;;;;;8.55;51.05;97798.41;5127941;27;20193;-72
2022/04/10 05:53:14;;;;;;;6.67;5.80;;;;;;;8.58;50.38;97799.94;5136012;27;20180;-71
2022/04/10 05:55:39;;;;;;;7.10;5.60;;;;;;;8.49;50.45;97798.09;5120206;27;20252;-72
2022/04/10 05:58:04;;;;;;;10.40;6.10;;;;;;;8.54;51.03;97803.78;5110393;27;20185;-72
2022/04/10 06:00:30;;;;;;;6.10;5.50;;;;;;;8.59;50.60;97799.00;5123858;27;20227;-73
2022/04/10 06:02:56;;;;;;;7.73;5.80;;;;;;;8.60;50.76;97806.72;5099695;28;20201;-72
2022/04/10 06:05:22;;;;;;;6.83;5.40;;;;;;;8.71;51.10;97794.56;5094089;28;20197;-70
2022/04/10 06:07:48;;;;;;;5.97;5.20;;;;;;;8.96;50.78;97800.38;5112783;28;20231;-69
2022/04/10 06:10:14;;;;;;;6.00;5.40;;;;;;;9.16;50.71;97806.56;5112210;28;20458;-70
2022/04/10 06:12:39;;;;;;;8.27;5.27;;;;;;;9.34;49.75;97810.22;5112342;28;20426;-71
2022/04/10 06:15:05;;;;;;;7.33;4.90;;;;;;;9.53;49.49;97808.66;5111794;28;20482;-69
2022/04/10 06:17:31;;;;;;;5.77;5.00;;;;;;;9.70;49.49;97811.66;5110436;28;20250;-69
2022/04/10 06:19:57;;;;;;;7.23;5.13;;;;;;;9.73;48.35;97814.81;5112141;28;20208;-71
2022/04/10 06:22:26;;;;;;;5.67;4.87;;;;;;;9.73;48.46;97813.97;5110626;27;20566;-71
2022/04/10 06:24:52;;;;;;;5.53;4.90;;;;;;;9.73;48.30;97817.44;5112306;28;20430;-69
2022/04/10 06:27:17;;;;;;;9.20;5.40;;;;;;;9.70;47.91;97816.88;5111798;28;20619;-70
2022/04/10 06:29:43;;;;;;;5.70;5.00;;;;;;;9.70;48.40;97824.72;5111925;27;20538;-71
2022/04/10 06:32:09;;;;;;;6.50;4.67;;;;;;;9.69;48.58;97818.66;5112109;28;20604;-72
2022/04/10 06:34:34;;;;;;;6.93;5.00;;;;;;;9.77;48.25;97823.22;5111064;28;20223;-71
2022/04/10 06:37:00;;;;;;;8.27;4.70;;;;;;;9.80;48.32;97826.41;5110887;28;20185;-71
2022/04/10 06:39:25;;;;;;;5.43;4.57;;;;;;;9.77;48.03;97825.84;5111229;28;20246;-72
2022/04/10 06:41:51;;;;;;;5.67;4.23;;;;;;;9.77;48.18;97823.22;5112042;28;20179;-70
2022/04/10 06:44:17;;;;;;;6.27;4.83;;;;;;;9.82;48.47;97824.50;5093278;28;20808;-71
2022/04/10 06:46:43;;;;;;;7.03;4.57;;;;;;;9.82;47.83;97826.28;5111551;28;20488;-70
2022/04/10 06:49:11;;;;;;;7.43;5.00;;;;;;;9.90;47.63;97828.22;5111176;28;20461;-70
2022/04/10 06:51:38;;;;;;;5.00;4.50;;;;;;;9.93;47.32;97828.81;5117865;27;20431;-70
2022/04/10 06:54:04;;;;;;;7.50;5.70;;;;;;;10.05;47.15;97831.31;5094473;28;20498;-69
2022/04/10 06:56:30;;;;;;;4.87;4.30;;;;;;;10.01;47.29;97832.53;5102703;28;20907;-70
2022/04/10 06:58:55;;;;;;;6.60;4.90;;;;;;;10.05;47.01;97831.31;5116663;28;20470;-70
2022/04/10 07:01:21;;;;;;;4.90;4.47;;;;;;;10.10;46.77;97836.97;5114102;28;20230;-70
2022/04/10 07:03:46;;;;;;;5.70;4.40;;;;;;;10.12;47.19;97832.44;5109179;28;20216;-70
2022/04/10 07:06:12;;;;;;;11.37;4.47;;;;;;;10.17;47.16;97840.72;5111573;28;20189;-70
2022/04/10 07:08:37;;;;;;;5.07;4.50;;;;;;;10.26;46.43;97842.53;5110733;28;20575;-70
2022/04/10 07:11:03;;;;;;;7.50;4.83;;;;;;;10.31;46.44;97844.75;5094546;28;20178;-71
2022/04/10 07:13:28;;;;;;;7.30;4.90;;;;;;;10.21;46.07;97836.03;5109180;28;20234;-72
2022/04/10 07:15:54;;;;;;;4.97;4.47;;;;;;;10.24;46.55;97827.91;5111565;28;20668;-72
2022/04/10 07:18:19;;;;;;;7.17;5.33;;;;;;;10.27;45.95;97833.72;5092874;28;20238;-72
2022/04/10 07:20:45;;;;;;;5.50;4.60;;;;;;;10.41;46.31;97837.75;5112279;28;20181;-71
2022/04/10 07:25:55;;;;;;;6.00;4.67;;;;;;;10.66;45.52;97842.63;5110358;28;20204;-70
2022/04/10 07:28:21;;;;;;;4.73;4.33;;;;;;;10.75;45.11;97847.03;5109318;28;20501;-72
2022/04/10 07:30:47;;;;;;;7.50;5.70;;;;;;;10.82;44.77;97844.69;5111061;28;20185;-71
2022/04/10 07:33:12;;;;;;;7.30;4.90;;;;;;;10.88;44.53;97852.03;5124547;28;20215;-72
2022/04/10 07:35:41;;;;;;;6.67;5.13;;;;;;;10.97;44.38;97847.72;5120990;27;20264;-71
2022/04/10 07:38:07;;;;;;;7.20;4.90;;;;;;;10.98;44.54;97852.84;5109759;28;20188;-71
2022/04/10 07:40:38;;;;;;;4.90;4.23;;;;;;;11.07;44.51;97845.94;5110497;28;20443;-71
2022/04/10 07:43:04;;;;;;;9.23;4.83;;;;;;;11.17;44.26;97844.13;5111032;28;20423;-69
2022/04/10 07:48:13;;;;;;;6.73;5.23;;;;;;;11.48;44.23;97843.91;5114676;28;20458;-75
2022/04/10 07:50:40;;;;;;;5.90;4.50;;;;;;;11.61;43.86;97850.63;5116199;27;20507;-71
2022/04/10 07:53:05;;;;;;;6.83;5.13;;;;;;;11.67;42.79;97850.06;5120104;27;20423;-71
2022/04/10 07:55:31;;;;;;;5.47;4.50;;;;;;;11.75;42.69;97854.63;5114792;28;20184;-70
2022/04/10 07:57:57;;;;;;;7.37;5.10;;;;;;;11.87;42.57;97857.88;5114582;28;20268;-71
2022/04/10 08:00:22;;;;;;;7.03;4.77;;;;;;;12.00;42.95;97858.41;5114218;28;20209;-71
2022/04/10 08:02:48;;;;;;;7.90;4.77;;;;;;;12.16;42.08;97860.38;5100932;28;20186;-70
2022/04/10 08:05:17;;;;;;;7.67;4.97;;;;;;;12.11;40.86;97860.84;5110638;28;20177;-70
2022/04/10 08:07:44;;;;;;;8.20;4.80;;;;;;;12.13;40.79;97858.06;5092609;28;20546;-70
2022/04/10 08:10:10;;;;;;;7.37;5.00;;;;;;;12.36;40.67;97866.38;5110073;28;20434;-70
2022/04/10 08:12:36;;;;;;;7.77;4.40;;;;;;;12.56;41.27;97874.16;5113981;28;20499;-71
2022/04/10 08:15:03;;;;;;;6.93;4.87;;;;;;;12.70;40.25;97865.75;5114136;28;20427;-70
2022/04/10 08:17:29;;;;;;;7.43;4.93;;;;;;;12.81;40.05;97871.75;5114450;27;20192;-71
2022/04/10 08:19:55;;;;;;;5.30;4.00;;;;;;;12.98;40.10;97868.28;5113959;28;20962;-69
2022/04/10 08:22:26;;;;;;;6.27;4.50;;;;;;;13.11;39.67;97867.91;5095556;28;20182;-71
2022/04/10 08:24:52;;;;;;;6.20;4.73;;;;;;;13.24;38.93;97867.50;5114109;28;20479;-71
2022/04/10 08:27:19;;;;;;;5.10;4.57;;;;;;;13.29;37.11;97875.78;5114048;28;20473;-71
2022/04/10 08:29:44;;;;;;;6.00;5.40;;;;;;;13.45;37.11;97879.53;5100724;27;20868;-71
2022/04/10 08:32:10;;;;;;;9.47;5.50;;;;;;;13.58;37.42;97872.06;5092213;28;20428;-71
2022/04/10 08:34:35;;;;;;;7.50;6.73;;;;;;;13.67;35.81;97878.22;5112960;28;20196;-69
2022/04/10 08:37:05;;;;;;;10.63;7.83;;;;;;;13.71;36.43;97881.34;5113799;28;20193;-69
2022/04/10 08:39:34;;;;;;;6.60;5.53;;;;;;;13.73;35.27;97884.66;5113030;28;20661;-73
2022/04/10 08:42:05;;;;;;;7.70;4.60;;;;;;;13.70;34.95;97887.59;5122644;27;20423;-70
2022/04/10 08:44:31;;;;;;;5.90;4.07;;;;;;;13.70;35.65;97883.16;5113037;28;20964;-71
2022/04/10 08:47:01;;;;;;;6.00;3.47;;;;;;;13.61;34.96;97892.81;5113883;28;20826;-72
2022/04/10 08:49:29;;;;;;;5.40;3.87;;;;;;;13.63;35.95;97888.22;5113511;28;20454;-70
2022/04/10 08:51:55;;;;;;;7.70;3.77;;;;;;;13.66;35.60;97887.09;5120220;27;20515;-71
2022/04/10 08:54:21;;;;;;;6.10;3.97;;;;;;;13.57;35.43;97890.63;5113372;28;20880;-71
2022/04/10 08:56:47;;;;;;;8.50;3.77;;;;;;;13.48;36.36;97898.50;5112606;28;20423;-70
2022/04/10 08:59:12;;;;;;;5.33;3.73;;;;;;;13.41;36.27;97900.09;5117883;27;20201;-70
2022/04/10 09:01:38;;;;;;;6.77;3.77;;;;;;;13.31;35.73;97901.94;5118134;28;20181;-71
2022/04/10 09:04:04;;;;;;;4.60;3.70;;;;;;;13.14;35.97;97898.34;5118048;28;20183;-70
2022/04/10 09:06:30;;;;;;;9.13;3.67;;;;;;;13.10;36.09;97902.28;5117522;28;20188;-71
2022/04/10 09:09:16;;;;;;;6.97;4.00;;;;;;;13.11;36.39;97898.66;5120041;28;20434;-70
2022/04/10 09:11:42;;;;;;;12.20;3.90;;;;;;;13.13;36.33;97884.38;5117288;28;20192;-68
2022/04/10 09:14:08;;;;;;;6.10;3.60;;;;;;;13.24;36.01;97883.28;5128072;27;20805;-71
2022/04/10 09:16:34;;;;;;;6.23;3.20;;;;;;;13.43;36.42;97887.59;5113910;28;20434;-70
2022/04/10 09:19:01;;;;;;;3.53;2.80;;;;;;;13.71;37.88;97887.44;5112579;28;20648;-71
2022/04/10 09:21:29;;;;;;;5.10;3.30;;;;;;;13.95;36.72;97885.91;5112843;28;20248;-70
2022/04/10 09:24:06;;;;;;;13.00;4.20;;;;;;;14.10;36.72;97881.72;5113214;28;20431;-70
2022/04/10 09:26:52;;;;;;;6.97;3.90;;;;;;;14.21;34.29;97890.31;5112354;27;20848;-70
2022/04/10 09:29:19;;;;;;;5.07;2.83;;;;;;;14.37;35.62;97890.38;5109809;27;20455;-71
2022/04/10 09:31:45;;;;;;;5.53;3.47;;;;;;;14.39;33.85;97898.13;5114168;28;20891;-70
2022/04/10 09:34:15;;;;;;;3.53;3.23;;;;;;;14.34;33.74;97889.88;5113988;28;20439;-70
2022/04/10 09:36:42;;;;;;;4.93;3.23;;;;;;;14.22;33.30;97900.72;5108714;27;20424;-71
2022/04/10 09:39:15;;;;;;;8.87;3.60;;;;;;;13.92;33.48;97896.78;5107786;28;20813;-70
2022/04/10 09:41:43;;;;;;;8.23;3.50;;;;;;;13.83;33.71;97901.19;5113680;28;20449;-70
2022/04/10 09:44:14;;;;;;;6.93;3.43;;;;;;;13.69;33.57;97905.19;5113206;28;20442;-70
2022/04/10 09:46:40;;;;;;;5.20;3.77;;;;;;;13.58;33.73;97895.78;5113678;28;20467;-70
2022/04/10 09:49:33;;;;;;;6.50;3.73;;;;;;;13.67;35.03;97909.81;5112277;27;20810;-69
2022/04/10 09:52:04;;;;;;;4.87;3.40;;;;;;;13.66;33.69;97901.06;5111109;27;20427;-70
2022/04/10 09:54:38;;;;;;;8.70;3.40;;;;;;;13.95;33.47;97892.03;5120825;27;20795;-70
2022/04/10 09:57:06;;;;;;;6.27;3.43;;;;;;;14.60;35.27;97884.50;5119219;27;20496;-70
2022/04/10 09:59:37;;;;;;;5.43;3.23;;;;;;;14.96;33.10;97888.72;5110648;27;20484;-71
2022/04/10 10:02:05;;;;;;;4.20;3.53;;;;;;;15.05;30.90;97888.59;5093890;28;20442;-71
2022/04/10 10:04:33;;;;;;;6.87;3.00;;;;;;;15.03;30.19;97882.63;5107517;27;20433;-70
2022/04/10 10:06:58;;;;;;;6.17;3.37;;;;;;;15.15;30.25;97888.41;5110622;28;20519;-69
2022/04/10 10:09:24;;;;;;;7.13;3.07;;;;;;;15.28;29.93;97881.78;5093126;28;20447;-71
2022/04/10 10:11:51;;;;;;;7.20;2.60;;;;;;;15.62;29.63;97872.88;5114651;27;20205;-71
2022/04/10 10:14:16;;;;;;;5.60;2.70;;;;;;;15.81;28.86;97869.81;5116689;27;20494;-71
2022/04/10 10:16:42;;;;;;;6.33;3.00;;;;;;;15.73;28.86;97880.44;5111889;28;20498;-70
2022/04/10 10:19:08;;;;;;;4.07;2.63;;;;;;;15.48;29.30;97893.69;5094908;28;20197;-69
2022/04/10 10:21:33;;;;;;;6.60;2.80;;;;;;;15.38;30.05;97894.84;5092695;28;20231;-70
2022/04/10 10:23:59;;;;;;;4.10;3.30;;;;;;;15.06;30.61;97899.94;5112059;28;20176;-71
2022/04/10 10:26:46;;;;;;;4.77;3.30;;;;;;;14.71;30.96;97897.41;5093369;28;20204;-68
2022/04/10 10:29:49;;;;;;;5.23;3.03;;;;;;;14.62;32.02;97897.56;5127793;27;20243;-70
2022/04/10 10:32:30;;;;;;;3.07;2.77;;;;;;;14.19;32.55;97906.31;5108498;28;20865;-69
2022/04/10 10:34:56;;;;;;;6.20;3.97;;;;;;;14.09;34.38;97901.16;5089845;28;20453;-71
2022/04/10 10:37:31;;;;;;;8.57;3.40;;;;;;;14.18;39.01;97899.38;5108493;28;20435;-68
2022/04/10 10:39:58;;;;;;;6.30;3.70;;;;;;;14.38;36.99;97901.75;5110253;27;21112;-69
2022/04/10 10:42:24;;;;;;;7.73;4.23;;;;;;;14.27;36.46;97906.31;5111190;28;20418;-69
2022/04/10 10:44:50;;;;;;;6.07;4.23;;;;;;;14.16;34.78;97909.25;5111358;28;21194;-70
2022/04/10 10:47:22;;;;;;;8.70;4.50;;;;;;;13.93;36.51;97909.81;5111442;28;20665;-71
2022/04/10 10:49:49;;;;;;;5.37;4.57;;;;;;;13.45;36.83;97913.78;5111171;28;20465;-70
2022/04/10 10:52:15;;;;;;;7.20;5.30;;;;;;;13.39;38.59;97909.91;5117381;27;20426;-70
2022/04/10 10:54:59;;;;;;;8.23;5.93;;;;;;;13.35;38.66;97908.56;5098282;28;20481;-72
2022/04/10 10:57:31;;;;;;;6.03;5.40;;;;;;;13.28;37.96;97905.72;5109379;28;20168;-70
2022/04/10 11:00:11;;;;;;;6.93;6.07;;;;;;;13.18;38.69;97911.06;5105264;28;20434;-70
2022/04/10 11:02:38;;;;;;;9.60;5.70;;;;;;;13.31;38.77;97905.41;5093108;28;20787;-69
2022/04/10 11:05:08;;;;;;;9.57;5.80;;;;;;;13.31;38.72;97907.19;5111274;28;20465;-70
2022/04/10 11:07:39;;;;;;;8.07;5.30;;;;;;;13.87;38.44;97905.13;5110860;28;20525;-70
2022/04/10 11:10:08;;;;;;;6.97;4.93;;;;;;;14.23;38.01;97898.91;5110966;28;20454;-69
2022/04/10 11:12:58;;;;;;;6.87;4.57;;;;;;;14.27;36.97;97906.31;5110876;28;20522;-70
2022/04/10 11:15:28;;;;;;;9.20;4.57;;;;;;;14.20;36.34;97912.38;5119000;28;20422;-69
2022/04/10 11:17:53;;;;;;;6.50;4.60;;;;;;;14.08;35.30;97917.94;5096199;28;20427;-69
2022/04/10 11:20:21;;;;;;;13.40;4.27;;;;;;;13.47;37.11;97935.53;5108416;28;20455;-69
2022/04/10 11:22:55;;;;;;;6.10;4.80;;;;;;;13.04;38.34;97916.88;5115295;28;20250;-68
2022/04/10 11:25:31;;;;;;;6.77;5.23;;;;;;;12.96;40.30;97912.34;5123379;27;21005;-68
2022/04/10 11:28:04;;;;;;;5.43;4.93;;;;;;;12.74;40.13;97903.91;5116056;27;20974;-70
2022/04/10 11:30:44;;;;;;;6.50;4.80;;;;;;;12.50;40.89;97906.28;5115095;28;20442;-74
2022/04/10 11:33:11;;;;;;;12.27;6.63;;;;;;;12.46;41.19;97905.75;5115017;28;20430;-70
2022/04/10 11:35:38;;;;;;;20.23;8.37;;;;;;;12.57;42.41;97897.66;5114674;27;20426;-70
2022/04/10 11:38:07;;;;;;;18.03;8.13;;;;;;;12.60;42.48;97899.19;5098629;28;20879;-70
2022/04/10 11:40:35;;;;;;;6.27;5.10;;;;;;;12.53;41.28;97900.72;5124160;27;20525;-69
2022/04/10 11:43:03;;;;;;;5.70;4.67;;;;;;;12.52;42.34;97894.66;5120285;27;20483;-69